Time;durP1;ratioP1;P1;durP2;ratioP2;P2;SDS_P1;SDS_P2;PMS_P1;PMS_P2;Temp;Humidity;BMP_temperature;BMP_pressure;BME280_temperature;BME280_humidity;BME280_pressure;Samples;Min_cycle;Max_cycle;Signal;HPM_P1;HPM_P2
2023/05/15 00:01:03;;;;;;;5.00;3.90;;;;;;;14.74;56.54;99460.20;218558;1257;139327;-67
2023/05/15 00:06:08;;;;;;;8.80;4.70;;;;;;;14.74;56.46;99446.95;219126;1257;138855;-67
2023/05/15 00:11:14;;;;;;;4.80;4.30;;;;;;;14.74;56.51;99445.88;217522;1260;138783;-67
2023/05/15 00:16:19;;;;;;;5.80;4.80;;;;;;;14.69;56.48;99456.12;217681;1257;138814;-68
2023/05/15 00:21:23;;;;;;;4.70;3.90;;;;;;;14.64;56.88;99463.27;218103;1260;138655;-66
2023/05/15 00:26:27;;;;;;;3.90;3.50;;;;;;;14.58;56.92;99446.15;217610;1260;139616;-66
2023/05/15 00:31:32;;;;;;;4.80;4.30;;;;;;;14.54;56.99;99424.52;217691;1259;138923;-66
2023/05/15 00:36:36;;;;;;;5.10;4.30;;;;;;;14.49;57.03;99408.43;218202;1261;139535;-67
2023/05/15 00:41:40;;;;;;;4.40;4.00;;;;;;;14.48;57.42;99401.89;217916;1262;139437;-66
2023/05/15 00:46:45;;;;;;;7.70;4.70;;;;;;;14.45;57.53;99409.23;218097;1257;139047;-68
2023/05/15 00:51:51;;;;;;;10.30;4.40;;;;;;;14.40;57.89;99385.83;218824;1257;139095;-68
2023/05/15 00:56:59;;;;;;;4.50;4.20;;;;;;;14.36;57.89;99370.01;218058;1257;139190;-68
2023/05/15 01:02:04;;;;;;;4.10;3.80;;;;;;;14.34;57.88;99368.03;218637;1257;141873;-68
2023/05/15 01:07:09;;;;;;;6.30;5.10;;;;;;;14.30;58.81;99378.75;217623;1257;139679;-70
2023/05/15 01:12:16;;;;;;;8.40;5.10;;;;;;;14.24;59.49;99381.73;219249;1261;140111;-68
2023/05/15 01:17:20;;;;;;;4.90;4.50;;;;;;;14.16;59.43;99374.70;218038;1261;139547;-67
2023/05/15 01:22:43;;;;;;;5.40;4.90;;;;;;;13.99;60.19;99383.54;219096;1258;139002;-67
2023/05/15 01:27:53;;;;;;;5.20;4.80;;;;;;;13.89;61.11;99372.36;218416;1261;139506;-66
2023/05/15 01:33:28;;;;;;;5.80;5.20;;;;;;;13.85;61.77;99361.68;219089;1260;139977;-67
2023/05/15 01:38:52;;;;;;;5.90;4.70;;;;;;;13.84;62.33;99359.33;219418;1257;139433;-71
2023/05/15 01:44:15;;;;;;;5.20;4.80;;;;;;;13.80;62.51;99346.45;220013;1260;140677;-70
2023/05/15 01:49:25;;;;;;;5.20;4.70;;;;;;;13.68;63.16;99352.49;218610;1259;139393;-68
2023/05/15 01:54:32;;;;;;;10.30;5.60;;;;;;;13.55;63.99;99349.50;219475;1257;139882;-69
2023/05/15 01:59:39;;;;;;;7.40;5.30;;;;;;;13.47;64.10;99340.86;217775;1259;140347;-66
2023/05/15 02:04:45;;;;;;;6.70;5.80;;;;;;;13.44;64.73;99330.09;219044;1261;141447;-70
2023/05/15 02:09:54;;;;;;;7.70;6.10;;;;;;;13.41;65.26;99318.91;218771;1257;140779;-67
2023/05/15 02:14:59;;;;;;;5.80;5.20;;;;;;;13.34;65.85;99311.21;217754;1257;139687;-68
2023/05/15 02:20:07;;;;;;;7.70;6.20;;;;;;;13.27;66.07;99297.86;218547;1257;140573;-68
2023/05/15 02:25:12;;;;;;;11.80;6.10;;;;;;;13.27;66.48;99280.02;217941;1257;140732;-67
2023/05/15 02:30:34;;;;;;;7.00;6.40;;;;;;;13.22;67.02;99270.80;217546;1257;140965;-67
2023/05/15 02:35:58;;;;;;;5.90;5.40;;;;;;;13.18;67.19;99262.43;218597;1257;246819;-67
2023/05/15 02:41:05;;;;;;;6.60;5.90;;;;;;;13.11;67.30;99249.14;220134;1257;140910;-67
2023/05/15 02:46:10;;;;;;;6.00;5.50;;;;;;;13.05;67.84;99241.08;219912;1257;140822;-67
2023/05/15 02:51:15;;;;;;;7.80;6.50;;;;;;;12.99;68.07;99240.52;220131;1257;139874;-67
2023/05/15 02:56:21;;;;;;;6.30;5.40;;;;;;;12.96;68.41;99244.63;217948;1257;140433;-67
2023/05/15 03:01:26;;;;;;;7.60;6.10;;;;;;;12.96;68.86;99231.73;218885;1257;139448;-67
2023/05/15 03:06:30;;;;;;;7.30;6.50;;;;;;;12.96;68.84;99223.86;217545;1261;140074;-66
2023/05/15 03:11:35;;;;;;;21.20;6.50;;;;;;;12.96;68.89;99217.29;219411;1258;140728;-66
2023/05/15 03:16:39;;;;;;;7.10;5.90;;;;;;;12.98;68.80;99209.26;219186;1260;139929;-67
2023/05/15 03:21:43;;;;;;;7.80;6.20;;;;;;;13.02;68.93;99199.87;218860;1259;450579;-67
2023/05/15 03:26:48;;;;;;;8.70;6.40;;;;;;;13.03;68.98;99184.45;219532;1259;139662;-67
2023/05/15 03:31:52;;;;;;;6.70;5.70;;;;;;;13.03;68.72;99172.14;220113;1259;139700;-67
2023/05/15 03:36:58;;;;;;;8.90;6.40;;;;;;;13.03;68.99;99163.21;219987;1262;139797;-67
2023/05/15 03:42:04;;;;;;;6.90;6.20;;;;;;;13.02;68.88;99162.52;219396;1260;140016;-66
2023/05/15 03:47:08;;;;;;;8.20;6.00;;;;;;;13.02;68.79;99163.42;218960;1260;139696;-66
2023/05/15 03:52:13;;;;;;;12.60;7.70;;;;;;;12.99;69.22;99162.50;218988;1257;139963;-66
2023/05/15 03:57:17;;;;;;;7.10;6.10;;;;;;;12.94;69.41;99161.84;219491;1260;139699;-66
2023/05/15 04:02:22;;;;;;;6.40;5.80;;;;;;;12.93;69.45;99162.95;218648;1261;140956;-66
2023/05/15 04:07:27;;;;;;;7.30;6.60;;;;;;;12.94;69.66;99169.01;219507;1260;140458;-67
2023/05/15 04:12:33;;;;;;;6.30;5.60;;;;;;;12.94;69.71;99170.89;217312;1258;222256;-65
2023/05/15 04:17:36;;;;;;;14.10;6.70;;;;;;;12.92;70.28;99170.40;218478;1260;139592;-66
2023/05/15 04:22:44;;;;;;;7.90;5.60;;;;;;;12.89;70.52;99171.89;217752;1263;139882;-66
2023/05/15 04:27:48;;;;;;;5.70;5.20;;;;;;;12.89;70.98;99162.89;218461;1262;140140;-66
2023/05/15 04:32:53;;;;;;;6.30;5.50;;;;;;;12.88;71.23;99153.10;217557;1260;140076;-66
2023/05/15 04:37:57;;;;;;;9.00;6.10;;;;;;;12.86;71.76;99147.31;217607;1259;140682;-66
2023/05/15 04:43:02;;;;;;;6.00;5.30;;;;;;;12.86;71.93;99146.40;218275;1257;140675;-66
2023/05/15 04:48:08;;;;;;;5.90;5.30;;;;;;;12.86;71.89;99136.45;217853;1257;141267;-66
2023/05/15 04:53:15;;;;;;;7.60;5.10;;;;;;;12.88;72.32;99131.97;218199;1262;139467;-66
2023/05/15 04:58:19;;;;;;;6.20;5.20;;;;;;;12.89;72.32;99127.36;217793;1261;140508;-65
2023/05/15 05:03:23;;;;;;;5.70;5.20;;;;;;;12.93;72.64;99119.14;219035;1262;139979;-65
2023/05/15 05:08:28;;;;;;;5.50;4.80;;;;;;;12.96;72.76;99117.07;218161;1261;139452;-66
2023/05/15 05:13:33;;;;;;;10.70;4.60;;;;;;;12.99;73.15;99108.30;217423;1262;139865;-66
2023/05/15 05:18:38;;;;;;;5.20;4.80;;;;;;;13.00;73.38;99113.98;219241;1260;140582;-67
2023/05/15 05:23:44;;;;;;;5.30;4.90;;;;;;;13.00;73.40;99110.02;218438;1261;139821;-67
2023/05/15 05:28:49;;;;;;;5.80;5.30;;;;;;;13.01;73.68;99108.19;218834;1262;140390;-66
2023/05/15 05:33:55;;;;;;;8.60;5.80;;;;;;;13.01;73.68;99100.48;219771;1258;139369;-66
2023/05/15 05:39:00;;;;;;;5.30;4.60;;;;;;;12.99;73.74;99097.77;220081;1257;139599;-66
2023/05/15 05:44:05;;;;;;;13.70;6.50;;;;;;;12.96;73.78;99092.08;219229;1261;140581;-66
2023/05/15 05:49:09;;;;;;;5.70;5.10;;;;;;;12.91;74.07;99087.25;217722;1262;140065;-66
2023/05/15 05:54:17;;;;;;;7.70;6.50;;;;;;;12.88;74.11;99081.04;218140;1258;142634;-66
2023/05/15 05:59:21;;;;;;;7.70;6.80;;;;;;;12.81;74.35;99074.52;218888;1257;140435;-66
2023/05/15 06:04:28;;;;;;;8.00;6.80;;;;;;;12.80;74.52;99070.62;218300;1262;140939;-65
2023/05/15 06:09:33;;;;;;;9.80;5.80;;;;;;;12.82;74.42;99067.84;218587;1258;140122;-66
2023/05/15 06:14:37;;;;;;;6.50;5.10;;;;;;;12.86;74.60;99063.17;218529;1262;140074;-66
2023/05/15 06:19:43;;;;;;;8.70;5.90;;;;;;;12.91;74.60;99052.00;218423;1262;139768;-66
2023/05/15 06:24:48;;;;;;;8.80;6.90;;;;;;;12.95;74.60;99046.60;218103;1257;140404;-66
2023/05/15 06:29:58;;;;;;;7.80;5.90;;;;;;;13.00;74.71;99035.80;218376;1262;140194;-66
2023/05/15 06:35:05;;;;;;;5.90;5.30;;;;;;;13.02;74.28;99033.77;218074;1257;139671;-66
2023/05/15 06:40:10;;;;;;;7.80;6.00;;;;;;;13.06;74.68;99030.14;218660;1261;141822;-66
2023/05/15 06:45:16;;;;;;;7.80;6.10;;;;;;;13.14;75.13;99016.98;217738;1262;139760;-66
2023/05/15 06:50:20;;;;;;;6.60;5.90;;;;;;;13.25;74.88;99012.10;218274;1258;140052;-66
2023/05/15 06:55:25;;;;;;;19.40;6.40;;;;;;;13.39;74.78;99001.49;217451;1257;141837;-66
2023/05/15 07:00:31;;;;;;;6.50;5.80;;;;;;;13.58;74.93;99001.44;217424;1262;140436;-66
2023/05/15 07:05:35;;;;;;;9.50;8.40;;;;;;;13.62;74.68;99000.20;218577;1258;139560;-66
2023/05/15 07:10:39;;;;;;;6.80;6.20;;;;;;;13.58;74.78;98989.55;218215;1258;139702;-66
2023/05/15 07:15:43;;;;;;;11.40;6.20;;;;;;;13.60;75.02;98982.21;218633;1257;139650;-67
2023/05/15 07:20:48;;;;;;;7.40;6.20;;;;;;;13.71;75.13;98968.30;218229;1262;139997;-66
2023/05/15 07:25:54;;;;;;;5.80;5.30;;;;;;;13.94;74.90;98969.33;219419;1262;140539;-66
2023/05/15 07:31:00;;;;;;;6.50;5.80;;;;;;;14.02;74.84;98967.48;220235;1257;139960;-67
2023/05/15 07:36:06;;;;;;;7.70;6.60;;;;;;;14.15;74.77;98955.06;219245;1260;140560;-67
2023/05/15 07:41:11;;;;;;;6.20;5.70;;;;;;;14.32;74.60;98950.58;220260;1257;141166;-67
2023/05/15 07:46:15;;;;;;;7.20;6.50;;;;;;;14.50;74.44;98949.95;220261;1262;139881;-67
2023/05/15 07:51:20;;;;;;;6.20;5.70;;;;;;;14.44;74.30;98953.83;219197;1257;139997;-67
2023/05/15 07:56:24;;;;;;;5.80;5.20;;;;;;;14.28;74.25;98952.16;219053;1257;140112;-67
2023/05/15 08:01:28;;;;;;;6.30;5.70;;;;;;;14.16;74.11;98953.67;218747;1257;139512;-66
2023/05/15 08:06:37;;;;;;;5.50;5.00;;;;;;;13.93;74.14;98941.69;217565;1260;210007;-67
2023/05/15 08:11:42;;;;;;;6.20;5.70;;;;;;;13.86;74.71;98941.17;218231;1260;139489;-66
2023/05/15 08:16:50;;;;;;;6.30;5.40;;;;;;;13.88;75.06;98933.09;218188;1257;139978;-67
2023/05/15 08:21:54;;;;;;;8.90;6.40;;;;;;;13.91;75.33;98936.39;218289;1261;140198;-66
2023/05/15 08:26:59;;;;;;;8.00;5.20;;;;;;;13.79;75.11;98931.04;217753;1258;139442;-66
2023/05/15 08:32:03;;;;;;;8.00;7.20;;;;;;;13.67;75.31;98929.65;217736;1257;139363;-67
2023/05/15 08:37:08;;;;;;;8.30;7.60;;;;;;;13.60;75.99;98924.26;217589;1257;139287;-66
2023/05/15 08:42:30;;;;;;;8.60;7.10;;;;;;;13.56;76.11;98925.56;217596;1260;139591;-67
2023/05/15 08:47:39;;;;;;;8.60;7.80;;;;;;;13.54;76.38;98927.06;217835;1260;139980;-66
2023/05/15 08:52:45;;;;;;;7.10;6.40;;;;;;;13.49;76.32;98923.54;218025;1258;139830;-66
2023/05/15 08:57:53;;;;;;;7.70;7.00;;;;;;;13.53;76.78;98912.06;218494;1261;139756;-67
2023/05/15 09:03:00;;;;;;;7.40;6.90;;;;;;;13.62;76.78;98915.36;218230;1260;139958;-66
2023/05/15 09:08:06;;;;;;;;;;;;;;;13.61;76.67;98916.71;219173;1257;139769;-67
2023/05/15 09:13:12;;;;;;;9.70;7.40;;;;;;;13.51;76.82;98914.44;218264;1261;126272;-67
2023/05/15 09:18:17;;;;;;;9.10;8.30;;;;;;;13.44;77.20;98917.36;219689;1257;140467;-67
2023/05/15 09:23:26;;;;;;;7.40;6.80;;;;;;;13.50;77.24;98908.76;220118;1257;139921;-67
2023/05/15 09:28:33;;;;;;;7.90;7.10;;;;;;;13.54;77.32;98903.88;220214;1257;140153;-67
2023/05/15 09:33:39;;;;;;;7.80;7.20;;;;;;;13.51;77.19;98905.23;219675;1257;140320;-67
2023/05/15 09:38:47;;;;;;;9.50;8.30;;;;;;;13.46;77.30;98898.11;219501;1257;139715;-67
2023/05/15 09:43:55;;;;;;;7.40;6.80;;;;;;;13.47;77.76;98898.17;218385;1257;140965;-67
2023/05/15 09:49:00;;;;;;;8.50;7.60;;;;;;;13.47;77.76;98898.06;218923;1258;140549;-67
2023/05/15 09:54:06;;;;;;;8.20;7.50;;;;;;;13.52;78.25;98895.80;217519;1260;139758;-66
2023/05/15 09:59:14;;;;;;;9.40;8.50;;;;;;;13.48;78.06;98895.48;218896;1258;142765;-67
2023/05/15 10:04:20;;;;;;;9.50;8.20;;;;;;;13.54;78.74;98892.63;217798;1257;140099;-66
2023/05/15 10:09:32;;;;;;;9.40;8.50;;;;;;;13.57;78.84;98888.71;218812;1257;139672;-66
2023/05/15 10:14:38;;;;;;;10.50;9.00;;;;;;;13.61;79.10;98891.16;218415;1260;140052;-66
2023/05/15 10:19:43;;;;;;;10.30;9.30;;;;;;;13.67;79.13;98893.27;217650;1259;140527;-66
2023/05/15 10:25:20;;;;;;;8.90;8.10;;;;;;;13.68;79.29;98889.85;218126;1256;139857;-66
2023/05/15 10:30:27;;;;;;;13.20;11.10;;;;;;;13.74;79.82;98893.58;218560;1255;139688;-66
2023/05/15 10:35:33;;;;;;;12.80;11.50;;;;;;;13.75;79.75;98893.95;219264;1255;140523;-65
2023/05/15 10:40:40;;;;;;;9.20;8.20;;;;;;;13.75;79.91;98884.98;218166;1257;139907;-67
2023/05/15 10:45:45;;;;;;;9.40;8.50;;;;;;;13.80;80.10;98882.54;219013;1257;140369;-67
2023/05/15 10:50:50;;;;;;;12.70;9.80;;;;;;;13.90;80.36;98885.92;218943;1256;139746;-67
2023/05/15 10:55:56;;;;;;;14.40;12.40;;;;;;;14.01;80.54;98891.92;219201;1256;139717;-67
2023/05/15 11:01:00;;;;;;;10.80;9.60;;;;;;;14.01;80.43;98891.86;218139;1260;139628;-67
2023/05/15 11:06:11;;;;;;;12.60;11.10;;;;;;;13.86;80.11;98887.98;219163;1257;139691;-67
2023/05/15 11:11:56;;;;;;;9.80;8.90;;;;;;;13.73;80.73;98884.31;219338;1257;141842;-67
2023/05/15 11:17:03;;;;;;;9.70;8.50;;;;;;;13.68;80.93;98879.14;218801;1256;141224;-67
2023/05/15 11:22:18;;;;;;;7.80;7.10;;;;;;;13.68;81.51;98879.88;220668;1256;140982;-67
2023/05/15 11:27:26;;;;;;;10.10;8.40;;;;;;;13.76;81.84;98871.69;219100;1256;140165;-67
2023/05/15 11:32:47;;;;;;;7.40;6.70;;;;;;;13.83;82.09;98858.46;219668;1255;140198;-67
2023/05/15 11:37:55;;;;;;;8.60;7.80;;;;;;;13.96;82.21;98856.05;219015;1256;139279;-67
2023/05/15 11:43:18;;;;;;;7.10;6.30;;;;;;;14.25;82.49;98852.19;220326;1256;139606;-67
2023/05/15 11:48:36;;;;;;;6.40;5.90;;;;;;;14.67;82.37;98845.20;220322;1256;140007;-67
2023/05/15 11:53:42;;;;;;;9.70;6.40;;;;;;;14.86;81.58;98837.66;219394;1256;139621;-66
2023/05/15 11:58:49;;;;;;;6.40;5.90;;;;;;;14.92;82.11;98834.94;218812;1256;140058;-66
2023/05/15 12:03:55;;;;;;;6.60;6.00;;;;;;;15.00;81.85;98829.72;218369;1256;139490;-66
2023/05/15 12:09:01;;;;;;;6.40;5.80;;;;;;;14.94;81.62;98829.55;218889;1255;139736;-66
2023/05/15 12:14:11;;;;;;;6.80;6.20;;;;;;;14.93;81.58;98826.38;218839;1256;139529;-66
2023/05/15 12:19:16;;;;;;;6.60;6.10;;;;;;;14.94;81.76;98819.07;218891;1256;140327;-66
2023/05/15 12:24:22;;;;;;;5.80;5.00;;;;;;;14.86;81.47;98814.00;218696;1259;140011;-67
2023/05/15 12:29:27;;;;;;;6.70;5.80;;;;;;;14.85;81.84;98812.14;218283;1255;139524;-66
2023/05/15 12:34:33;;;;;;;5.80;5.20;;;;;;;14.97;82.10;98808.83;218235;1255;139401;-66
2023/05/15 12:40:13;;;;;;;7.50;6.50;;;;;;;15.04;82.23;98798.05;218531;1256;140307;-70
2023/05/15 12:45:19;;;;;;;4.90;4.50;;;;;;;15.16;82.67;98802.38;218594;1257;139739;-67
2023/05/15 12:50:25;;;;;;;5.30;4.80;;;;;;;15.33;82.56;98799.16;218058;1257;139580;-70
2023/05/15 12:55:38;;;;;;;4.30;4.00;;;;;;;15.58;82.69;98787.40;218704;1256;141637;-67
2023/05/15 13:00:46;;;;;;;3.80;3.50;;;;;;;15.74;82.13;98784.21;218405;1256;139704;-65
2023/05/15 13:05:52;;;;;;;4.00;3.70;;;;;;;15.84;82.09;98781.45;220103;1255;141077;-64
2023/05/15 13:10:59;;;;;;;3.30;3.10;;;;;;;15.77;81.46;98780.09;219969;1255;140336;-67
2023/05/15 13:16:06;;;;;;;4.90;4.50;;;;;;;15.57;81.12;98777.90;218951;1256;140230;-67
2023/05/15 13:21:13;;;;;;;3.90;3.60;;;;;;;15.39;81.32;98781.62;220229;1256;139219;-70
2023/05/15 13:26:19;;;;;;;5.20;4.40;;;;;;;15.28;81.30;98777.38;219854;1256;141063;-68
2023/05/15 13:31:25;;;;;;;3.30;3.10;;;;;;;15.08;81.16;98789.48;219211;1257;139649;-72
2023/05/15 13:36:30;;;;;;;3.30;3.00;;;;;;;14.99;81.51;98790.34;220273;1256;140031;-71
2023/05/15 13:41:35;;;;;;;3.30;3.00;;;;;;;14.94;81.53;98784.40;219963;1256;140767;-71
2023/05/15 13:46:40;;;;;;;4.10;3.80;;;;;;;15.05;81.93;98778.52;219657;1255;140087;-70
2023/05/15 13:51:44;;;;;;;3.30;3.10;;;;;;;15.54;82.26;98778.85;219090;1256;139441;-69
2023/05/15 13:56:52;;;;;;;4.20;3.80;;;;;;;16.13;82.40;98773.83;218707;1255;139334;-68
2023/05/15 14:01:59;;;;;;;4.80;3.50;;;;;;;16.58;81.19;98770.52;219193;1255;139868;-66
2023/05/15 14:07:14;;;;;;;3.60;3.40;;;;;;;16.63;79.51;98775.92;219186;1256;140609;-66
2023/05/15 14:12:19;;;;;;;4.00;3.50;;;;;;;16.48;79.21;98774.08;219000;1256;140220;-67
2023/05/15 14:17:26;;;;;;;4.10;3.80;;;;;;;16.86;79.47;98773.40;217920;1257;140080;-67
2023/05/15 14:22:32;;;;;;;5.10;4.60;;;;;;;17.05;78.86;98772.77;219337;1257;140659;-69
2023/05/15 14:27:40;;;;;;;4.40;4.00;;;;;;;17.19;78.05;98773.92;217949;1256;140366;-68
2023/05/15 14:32:46;;;;;;;5.30;4.90;;;;;;;17.34;77.24;98773.45;218015;1257;139910;-67
2023/05/15 14:37:51;;;;;;;4.30;3.90;;;;;;;17.31;76.64;98776.42;218694;1257;140417;-72
2023/05/15 14:42:56;;;;;;;6.50;4.30;;;;;;;17.28;76.36;98773.09;219365;1256;140195;-66
2023/05/15 14:48:02;;;;;;;4.40;3.90;;;;;;;17.19;76.15;98769.23;218709;1256;230694;-67
2023/05/15 14:53:06;;;;;;;5.20;4.50;;;;;;;17.17;76.14;98777.08;218371;1257;141020;-68
2023/05/15 14:58:11;;;;;;;3.70;3.40;;;;;;;17.18;75.83;98775.18;219005;1257;139478;-66
2023/05/15 15:03:20;;;;;;;6.40;5.40;;;;;;;17.05;75.62;98777.80;217731;1257;140404;-65
2023/05/15 15:08:28;;;;;;;4.50;4.10;;;;;;;16.89;75.40;98778.94;219375;1256;141376;-66
2023/05/15 15:13:40;;;;;;;5.20;4.70;;;;;;;16.85;75.19;98771.79;219650;1256;139926;-64
2023/05/15 15:18:50;;;;;;;7.30;5.80;;;;;;;16.90;75.12;98770.73;220001;1257;140473;-65
2023/05/15 15:23:58;;;;;;;6.60;5.70;;;;;;;17.08;75.33;98761.88;217933;1256;3036156;-65
2023/05/15 15:29:06;;;;;;;5.00;4.50;;;;;;;17.20;74.89;98765.75;218943;1259;139963;-66
2023/05/15 15:34:19;;;;;;;4.90;4.50;;;;;;;17.22;74.29;98767.55;220178;1256;141019;-67
2023/05/15 15:39:28;;;;;;;5.40;4.90;;;;;;;17.08;73.91;98764.39;220125;1256;140218;-65
2023/05/15 15:44:35;;;;;;;5.80;5.10;;;;;;;16.95;73.88;98759.73;219666;1256;141215;-66
2023/05/15 15:49:46;;;;;;;5.20;4.80;;;;;;;16.82;73.80;98755.13;219484;1256;139852;-66
2023/05/15 15:54:52;;;;;;;11.70;4.80;;;;;;;16.87;74.19;98747.98;219970;1256;139578;-68
2023/05/15 15:59:57;;;;;;;4.40;4.10;;;;;;;16.95;74.19;98735.49;218471;1257;141049;-66
2023/05/15 16:05:06;;;;;;;5.20;4.60;;;;;;;16.96;74.28;98735.42;218752;1256;141347;-67
2023/05/15 16:10:11;;;;;;;4.70;4.20;;;;;;;16.96;74.09;98746.13;218813;1256;140152;-67
2023/05/15 16:15:16;;;;;;;5.10;4.70;;;;;;;16.88;73.88;98749.19;218044;1257;140190;-68
2023/05/15 16:20:27;;;;;;;5.20;4.80;;;;;;;16.93;74.09;98758.57;218294;1257;140647;-64
2023/05/15 16:25:33;;;;;;;5.20;4.70;;;;;;;16.84;74.01;98763.05;217750;1257;140361;-66
2023/05/15 16:30:39;;;;;;;6.30;5.70;;;;;;;16.59;74.00;98763.63;217911;1256;139888;-68
2023/05/15 16:35:53;;;;;;;5.80;4.60;;;;;;;16.22;74.04;98762.77;217816;1257;139935;-69
2023/05/15 16:41:01;;;;;;;4.40;3.90;;;;;;;16.03;74.42;98759.36;217844;1256;139801;-67
2023/05/15 16:46:07;;;;;;;4.00;3.70;;;;;;;15.91;74.45;98769.02;218732;1256;139796;-67
2023/05/15 16:51:12;;;;;;;4.90;4.50;;;;;;;15.82;74.47;98768.00;218653;1257;139857;-66
2023/05/15 16:56:19;;;;;;;3.80;3.40;;;;;;;15.66;74.50;98769.61;219397;1256;140687;-65
2023/05/15 17:01:24;;;;;;;3.50;3.20;;;;;;;15.52;74.39;98769.70;218483;1256;140527;-65
2023/05/15 17:06:29;;;;;;;5.70;3.70;;;;;;;15.35;74.63;98779.21;218577;1260;140326;-66
2023/05/15 17:11:34;;;;;;;3.60;3.30;;;;;;;15.11;74.70;98784.34;219026;1257;139681;-65
2023/05/15 17:16:39;;;;;;;6.40;3.50;;;;;;;14.95;75.01;98789.52;219901;1257;139442;-65
2023/05/15 17:21:47;;;;;;;3.30;3.00;;;;;;;14.86;75.06;98794.68;219500;1260;139484;-65
2023/05/15 17:26:52;;;;;;;3.00;2.80;;;;;;;14.77;75.35;98797.61;220222;1257;142662;-65
2023/05/15 17:31:57;;;;;;;4.10;3.20;;;;;;;14.72;75.46;98802.65;220265;1257;141187;-64
2023/05/15 17:37:02;;;;;;;3.50;3.00;;;;;;;14.67;75.49;98807.83;219940;1257;140006;-66
2023/05/15 17:42:16;;;;;;;6.90;3.40;;;;;;;14.64;75.54;98817.84;219816;1257;139764;-65
2023/05/15 17:47:24;;;;;;;3.10;2.30;;;;;;;14.52;75.37;98823.04;218384;1257;139558;-65
2023/05/15 17:52:31;;;;;;;2.00;1.90;;;;;;;14.40;75.53;98827.56;218789;1256;141197;-64
2023/05/15 17:57:36;;;;;;;2.80;1.90;;;;;;;14.25;75.42;98828.55;217597;1257;140163;-69
2023/05/15 18:02:42;;;;;;;2.40;2.20;;;;;;;14.09;75.62;98828.17;218417;1257;140721;-69
2023/05/15 18:07:55;;;;;;;2.50;1.80;;;;;;;13.98;75.74;98833.25;217782;1260;140651;-70
2023/05/15 18:13:02;;;;;;;2.20;2.00;;;;;;;13.85;75.63;98833.06;217465;1257;140369;-69
2023/05/15 18:18:08;;;;;;;;;;;;;;;13.70;75.98;98835.09;218361;1258;139542;-69
2023/05/15 18:23:14;;;;;;;2.00;1.80;;;;;;;13.55;76.06;98844.80;217523;1256;126511;-71
2023/05/15 18:28:19;;;;;;;2.60;2.40;;;;;;;13.46;76.46;98845.33;217676;1260;140511;-70
2023/05/15 18:33:25;;;;;;;2.60;2.20;;;;;;;13.35;76.62;98846.94;217746;1257;139744;-70
2023/05/15 18:38:30;;;;;;;2.60;2.50;;;;;;;13.16;76.97;98842.61;218821;1257;141641;-68
2023/05/15 18:43:35;;;;;;;2.80;2.20;;;;;;;13.03;77.38;98841.03;218165;1257;140137;-69
2023/05/15 18:48:40;;;;;;;2.70;2.50;;;;;;;12.94;77.68;98849.02;217483;1260;139611;-68
2023/05/15 18:53:44;;;;;;;3.30;2.20;;;;;;;12.84;78.01;98853.70;218334;1257;141957;-68
2023/05/15 18:58:49;;;;;;;1.90;1.70;;;;;;;12.73;78.09;98863.45;218038;1257;141320;-67
2023/05/15 19:03:54;;;;;;;2.70;1.90;;;;;;;12.63;78.38;98872.98;217570;1261;140139;-68
2023/05/15 19:09:00;;;;;;;2.60;2.40;;;;;;;12.52;78.48;98879.36;218564;1257;140660;-70
2023/05/15 19:14:05;;;;;;;3.50;2.60;;;;;;;12.41;78.98;98888.29;219488;1257;140362;-68
2023/05/15 19:19:11;;;;;;;1.90;1.80;;;;;;;12.37;79.13;98891.38;220284;1256;139990;-69
2023/05/15 19:24:15;;;;;;;3.00;2.70;;;;;;;12.37;79.35;98896.09;220241;1257;141619;-69
2023/05/15 19:29:20;;;;;;;2.80;2.60;;;;;;;12.33;79.44;98901.95;218886;1256;140774;-67
2023/05/15 19:34:25;;;;;;;3.40;3.10;;;;;;;12.32;79.90;98903.13;219747;1256;141308;-66
2023/05/15 19:39:29;;;;;;;5.70;3.50;;;;;;;12.34;80.02;98904.68;217951;1257;139805;-67
2023/05/15 19:44:34;;;;;;;6.20;3.40;;;;;;;12.33;80.38;98901.80;219596;1257;139863;-67
2023/05/15 19:49:39;;;;;;;3.90;3.60;;;;;;;12.36;80.69;98903.19;217725;1257;140425;-66
2023/05/15 19:54:44;;;;;;;4.20;3.90;;;;;;;12.40;80.82;98909.23;218469;1257;140407;-68
2023/05/15 19:59:49;;;;;;;4.40;3.50;;;;;;;12.40;81.04;98914.95;217723;1257;140116;-67
2023/05/15 20:04:54;;;;;;;5.30;4.00;;;;;;;12.43;81.20;98919.29;217697;1256;139903;-69
2023/05/15 20:09:58;;;;;;;5.40;3.80;;;;;;;12.44;81.42;98916.56;218941;1256;141319;-68
2023/05/15 20:15:03;;;;;;;4.30;3.90;;;;;;;12.47;81.51;98924.48;218061;1257;140623;-68
2023/05/15 20:20:10;;;;;;;3.60;3.30;;;;;;;12.51;81.71;98930.59;218148;1261;140533;-68
2023/05/15 20:25:16;;;;;;;4.60;3.90;;;;;;;12.56;81.79;98924.95;217487;1257;141719;-67
2023/05/15 20:30:21;;;;;;;4.50;3.30;;;;;;;12.59;81.72;98925.27;217821;1257;140139;-68
2023/05/15 20:35:26;;;;;;;5.70;4.10;;;;;;;12.62;81.92;98924.26;218785;1257;141093;-68
2023/05/15 20:40:32;;;;;;;4.70;3.90;;;;;;;12.63;81.89;98927.73;217624;1261;141280;-67
2023/05/15 20:45:37;;;;;;;5.10;3.80;;;;;;;12.64;82.05;98929.98;217965;1257;140856;-68
2023/05/15 20:50:45;;;;;;;5.00;3.90;;;;;;;12.63;82.05;98929.88;217804;1257;140763;-67
2023/05/15 20:55:50;;;;;;;5.80;5.10;;;;;;;12.65;81.86;98932.92;219278;1257;139718;-68
2023/05/15 21:00:59;;;;;;;4.40;3.70;;;;;;;12.62;81.67;98931.59;218189;1257;142093;-67
2023/05/15 21:06:05;;;;;;;3.50;3.20;;;;;;;12.60;81.67;98935.38;220278;1257;140298;-68
2023/05/15 21:11:11;;;;;;;4.20;3.70;;;;;;;12.54;81.29;98940.14;220351;1257;140185;-67
2023/05/15 21:16:16;;;;;;;4.40;4.10;;;;;;;12.46;81.23;98943.73;220357;1257;143077;-67
2023/05/15 21:21:21;;;;;;;6.40;4.80;;;;;;;12.39;81.14;98950.72;219918;1257;140476;-67
2023/05/15 21:26:27;;;;;;;6.30;4.80;;;;;;;12.30;81.06;98954.12;219224;1257;139467;-68
2023/05/15 21:31:33;;;;;;;6.30;4.40;;;;;;;12.25;80.99;98955.76;219951;1261;140247;-68
2023/05/15 21:36:41;;;;;;;5.80;5.20;;;;;;;12.24;81.27;98957.80;218962;1260;140318;-68
2023/05/15 21:41:46;;;;;;;5.20;4.80;;;;;;;12.21;81.34;98959.20;218872;1257;140012;-66
2023/05/15 21:46:52;;;;;;;4.80;4.30;;;;;;;12.19;81.58;98958.77;218048;1257;140379;-67
2023/05/15 21:51:58;;;;;;;6.30;5.70;;;;;;;12.18;81.71;98960.36;218775;1257;139740;-68
2023/05/15 21:57:04;;;;;;;5.30;4.90;;;;;;;12.18;81.78;98965.44;218309;1257;139664;-67
2023/05/15 22:02:09;;;;;;;7.30;6.70;;;;;;;12.11;81.87;98970.27;218041;1257;139459;-68
2023/05/15 22:07:16;;;;;;;7.90;6.90;;;;;;;12.06;82.13;98975.45;218529;1257;139672;-68
2023/05/15 22:12:21;;;;;;;8.70;5.90;;;;;;;12.07;82.18;98976.58;217453;1262;139760;-67
2023/05/15 22:17:27;;;;;;;6.00;5.40;;;;;;;12.05;82.53;98980.63;217761;1257;140041;-68
2023/05/15 22:22:34;;;;;;;6.60;6.00;;;;;;;12.05;82.60;98983.61;217735;1257;139497;-69
2023/05/15 22:27:40;;;;;;;8.50;7.80;;;;;;;12.04;82.79;98987.77;218318;1261;140952;-68
2023/05/15 22:32:45;;;;;;;7.30;6.60;;;;;;;12.04;82.60;98991.72;218520;1257;140021;-68
2023/05/15 22:37:51;;;;;;;8.20;7.50;;;;;;;12.04;82.95;98996.91;218311;1257;140771;-68
2023/05/15 22:42:56;;;;;;;10.70;8.10;;;;;;;12.08;83.14;98995.70;218459;1260;140332;-68
2023/05/15 22:48:00;;;;;;;6.50;6.00;;;;;;;12.09;82.92;99002.33;219849;1257;140667;-67
2023/05/15 22:53:05;;;;;;;8.80;7.00;;;;;;;12.11;82.94;99002.88;219043;1260;140134;-67
2023/05/15 22:58:11;;;;;;;9.20;8.30;;;;;;;12.12;82.81;99001.22;219631;1261;139585;-67
2023/05/15 23:03:16;;;;;;;8.70;7.80;;;;;;;12.12;82.78;99002.66;218842;1261;140055;-67
2023/05/15 23:08:20;;;;;;;9.00;8.10;;;;;;;12.13;82.80;99005.02;218202;1257;139893;-68
2023/05/15 23:13:24;;;;;;;9.60;7.20;;;;;;;12.14;82.74;99005.88;220061;1257;139947;-68
2023/05/15 23:18:28;;;;;;;8.10;7.30;;;;;;;12.12;82.79;99008.00;220034;1257;141365;-67
2023/05/15 23:23:33;;;;;;;7.90;7.20;;;;;;;12.15;82.93;99016.08;220517;1258;140170;-67
2023/05/15 23:28:38;;;;;;;9.30;8.50;;;;;;;12.17;82.61;99015.71;219160;1260;142868;-67